sensor_id;sensor_type;location;lat;lon;timestamp;temperature;humidity
50947;DHT22;36955;47.416;7.716;2022-11-20T00:01:13;4.90;99.90
50947;DHT22;36955;47.416;7.716;2022-11-20T00:03:40;4.90;99.90
50947;DHT22;36955;47.416;7.716;2022-11-20T00:06:09;4.90;99.90
50947;DHT22;36955;47.416;7.716;2022-11-20T00:08:36;4.90;99.90
50947;DHT22;36955;47.416;7.716;2022-11-20T00:11:07;4.80;99.90
50947;DHT22;36955;47.416;7.716;2022-11-20T00:13:33;4.80;99.90
50947;DHT22;36955;47.416;7.716;2022-11-20T00:16:01;4.80;99.90
50947;DHT22;36955;47.416;7.716;2022-11-20T00:18:28;4.90;99.90
50947;DHT22;36955;47.416;7.716;2022-11-20T00:21:01;4.70;99.90
50947;DHT22;36955;47.416;7.716;2022-11-20T00:23:27;4.70;99.90
50947;DHT22;36955;47.416;7.716;2022-11-20T00:25:53;4.70;99.90
50947;DHT22;36955;47.416;7.716;2022-11-20T00:28:19;4.70;99.90
50947;DHT22;36955;47.416;7.716;2022-11-20T00:30:45;4.70;99.90
50947;DHT22;36955;47.416;7.716;2022-11-20T00:33:11;4.60;99.90
50947;DHT22;36955;47.416;7.716;2022-11-20T00:35:37;4.70;99.90
50947;DHT22;36955;47.416;7.716;2022-11-20T00:38:03;4.70;99.90
50947;DHT22;36955;47.416;7.716;2022-11-20T00:40:29;4.60;99.90
50947;DHT22;36955;47.416;7.716;2022-11-20T00:42:55;4.60;99.90
50947;DHT22;36955;47.416;7.716;2022-11-20T00:45:21;4.60;99.90
50947;DHT22;36955;47.416;7.716;2022-11-20T00:47:47;4.50;99.90
50947;DHT22;36955;47.416;7.716;2022-11-20T00:50:13;4.50;99.90
50947;DHT22;36955;47.416;7.716;2022-11-20T00:52:39;4.40;99.90
50947;DHT22;36955;47.416;7.716;2022-11-20T00:55:05;4.30;99.90
50947;DHT22;36955;47.416;7.716;2022-11-20T00:57:31;4.30;99.90
50947;DHT22;36955;47.416;7.716;2022-11-20T00:59:57;4.30;99.90
50947;DHT22;36955;47.416;7.716;2022-11-20T01:02:23;4.30;99.90
50947;DHT22;36955;47.416;7.716;2022-11-20T01:04:49;4.20;99.90
50947;DHT22;36955;47.416;7.716;2022-11-20T01:07:15;4.10;99.90
50947;DHT22;36955;47.416;7.716;2022-11-20T01:09:41;4.10;99.90
50947;DHT22;36955;47.416;7.716;2022-11-20T01:12:08;4.10;99.90
50947;DHT22;36955;47.416;7.716;2022-11-20T01:14:34;4.00;99.90
50947;DHT22;36955;47.416;7.716;2022-11-20T01:17:00;4.00;99.90
50947;DHT22;36955;47.416;7.716;2022-11-20T01:19:26;4.00;99.90
50947;DHT22;36955;47.416;7.716;2022-11-20T01:21:53;4.00;99.90
50947;DHT22;36955;47.416;7.716;2022-11-20T01:24:21;4.00;99.90
50947;DHT22;36955;47.416;7.716;2022-11-20T01:26:49;4.10;99.90
50947;DHT22;36955;47.416;7.716;2022-11-20T01:29:21;4.00;99.90
50947;DHT22;36955;47.416;7.716;2022-11-20T01:31:47;4.00;99.90
50947;DHT22;36955;47.416;7.716;2022-11-20T01:34:15;4.10;99.90
50947;DHT22;36955;47.416;7.716;2022-11-20T01:36:43;4.10;99.90
50947;DHT22;36955;47.416;7.716;2022-11-20T01:39:16;4.10;99.90
50947;DHT22;36955;47.416;7.716;2022-11-20T01:41:43;4.10;99.90
50947;DHT22;36955;47.416;7.716;2022-11-20T01:44:12;4.10;99.90
50947;DHT22;36955;47.416;7.716;2022-11-20T01:46:39;4.10;99.90
50947;DHT22;36955;47.416;7.716;2022-11-20T01:49:18;4.20;99.90
50947;DHT22;36955;47.416;7.716;2022-11-20T01:54:16;4.30;99.90
50947;DHT22;36955;47.416;7.716;2022-11-20T01:56:45;4.30;99.90
50947;DHT22;36955;47.416;7.716;2022-11-20T01:59:16;4.40;99.90
50947;DHT22;36955;47.416;7.716;2022-11-20T02:01:43;4.40;99.90
50947;DHT22;36955;47.416;7.716;2022-11-20T02:04:10;4.40;99.90
50947;DHT22;36955;47.416;7.716;2022-11-20T02:06:50;4.50;99.90
50947;DHT22;36955;47.416;7.716;2022-11-20T02:09:19;4.40;99.90
50947;DHT22;36955;47.416;7.716;2022-11-20T02:11:45;4.50;99.90
50947;DHT22;36955;47.416;7.716;2022-11-20T02:14:11;4.50;99.90
50947;DHT22;36955;47.416;7.716;2022-11-20T02:16:40;4.50;99.90
50947;DHT22;36955;47.416;7.716;2022-11-20T02:19:16;4.50;99.90
50947;DHT22;36955;47.416;7.716;2022-11-20T02:24:21;4.60;99.90
50947;DHT22;36955;47.416;7.716;2022-11-20T02:27:10;4.50;99.90
50947;DHT22;36955;47.416;7.716;2022-11-20T02:30:00;4.60;99.90
50947;DHT22;36955;47.416;7.716;2022-11-20T02:32:32;4.60;99.90
50947;DHT22;36955;47.416;7.716;2022-11-20T02:35:09;4.50;99.90
50947;DHT22;36955;47.416;7.716;2022-11-20T02:37:38;4.50;99.90
50947;DHT22;36955;47.416;7.716;2022-11-20T02:40:05;4.50;99.90
50947;DHT22;36955;47.416;7.716;2022-11-20T02:42:31;4.40;99.90
50947;DHT22;36955;47.416;7.716;2022-11-20T02:44:57;4.30;99.90
50947;DHT22;36955;47.416;7.716;2022-11-20T02:47:23;4.30;99.90
50947;DHT22;36955;47.416;7.716;2022-11-20T02:49:49;4.30;99.90
50947;DHT22;36955;47.416;7.716;2022-11-20T02:52:15;4.30;99.90
50947;DHT22;36955;47.416;7.716;2022-11-20T02:54:41;4.30;99.90
50947;DHT22;36955;47.416;7.716;2022-11-20T02:57:07;4.30;99.90
50947;DHT22;36955;47.416;7.716;2022-11-20T02:59:33;4.40;99.90
50947;DHT22;36955;47.416;7.716;2022-11-20T03:01:59;4.30;99.90
50947;DHT22;36955;47.416;7.716;2022-11-20T03:04:25;4.40;99.90
50947;DHT22;36955;47.416;7.716;2022-11-20T03:06:51;4.40;99.90
50947;DHT22;36955;47.416;7.716;2022-11-20T03:09:17;4.40;99.90
50947;DHT22;36955;47.416;7.716;2022-11-20T03:11:43;4.40;99.90
50947;DHT22;36955;47.416;7.716;2022-11-20T03:14:09;4.40;99.90
50947;DHT22;36955;47.416;7.716;2022-11-20T03:16:35;4.40;99.90
50947;DHT22;36955;47.416;7.716;2022-11-20T03:19:01;4.30;99.90
50947;DHT22;36955;47.416;7.716;2022-11-20T03:21:27;4.30;99.90
50947;DHT22;36955;47.416;7.716;2022-11-20T03:23:54;4.40;99.90
50947;DHT22;36955;47.416;7.716;2022-11-20T03:26:23;4.40;99.90
50947;DHT22;36955;47.416;7.716;2022-11-20T03:28:52;4.40;99.90
50947;DHT22;36955;47.416;7.716;2022-11-20T03:31:21;4.40;99.90
50947;DHT22;36955;47.416;7.716;2022-11-20T03:33:48;4.40;99.90
50947;DHT22;36955;47.416;7.716;2022-11-20T03:36:15;4.40;99.90
50947;DHT22;36955;47.416;7.716;2022-11-20T03:38:42;4.40;99.90
50947;DHT22;36955;47.416;7.716;2022-11-20T03:41:10;4.40;99.90
50947;DHT22;36955;47.416;7.716;2022-11-20T03:43:37;4.40;99.90
50947;DHT22;36955;47.416;7.716;2022-11-20T03:46:04;4.40;99.90
50947;DHT22;36955;47.416;7.716;2022-11-20T03:48:30;4.50;99.90
50947;DHT22;36955;47.416;7.716;2022-11-20T03:53:34;4.50;99.90
50947;DHT22;36955;47.416;7.716;2022-11-20T03:56:00;4.50;99.90
50947;DHT22;36955;47.416;7.716;2022-11-20T03:58:26;4.40;99.90
50947;DHT22;36955;47.416;7.716;2022-11-20T04:00:52;4.40;99.90
50947;DHT22;36955;47.416;7.716;2022-11-20T04:03:18;4.40;99.90
50947;DHT22;36955;47.416;7.716;2022-11-20T04:05:44;4.40;99.90
50947;DHT22;36955;47.416;7.716;2022-11-20T04:08:10;4.40;99.90
50947;DHT22;36955;47.416;7.716;2022-11-20T04:10:36;4.40;99.90
50947;DHT22;36955;47.416;7.716;2022-11-20T04:13:02;4.50;99.90
50947;DHT22;36955;47.416;7.716;2022-11-20T04:15:28;4.50;99.90
50947;DHT22;36955;47.416;7.716;2022-11-20T04:17:54;4.50;99.90
50947;DHT22;36955;47.416;7.716;2022-11-20T04:20:20;4.50;99.90
50947;DHT22;36955;47.416;7.716;2022-11-20T04:22:46;4.60;99.90
50947;DHT22;36955;47.416;7.716;2022-11-20T04:25:12;4.60;99.90
50947;DHT22;36955;47.416;7.716;2022-11-20T04:27:38;4.60;99.90
50947;DHT22;36955;47.416;7.716;2022-11-20T04:30:05;4.60;99.90
50947;DHT22;36955;47.416;7.716;2022-11-20T04:32:31;4.60;99.90
50947;DHT22;36955;47.416;7.716;2022-11-20T04:34:57;4.70;99.90
50947;DHT22;36955;47.416;7.716;2022-11-20T04:37:23;4.70;99.90
50947;DHT22;36955;47.416;7.716;2022-11-20T04:39:49;4.60;99.90
50947;DHT22;36955;47.416;7.716;2022-11-20T04:42:15;4.60;99.90
50947;DHT22;36955;47.416;7.716;2022-11-20T04:44:41;4.40;99.90
50947;DHT22;36955;47.416;7.716;2022-11-20T04:47:07;4.30;99.90
50947;DHT22;36955;47.416;7.716;2022-11-20T04:49:33;4.20;99.90
50947;DHT22;36955;47.416;7.716;2022-11-20T04:51:59;4.10;99.90
50947;DHT22;36955;47.416;7.716;2022-11-20T04:54:25;4.10;99.90
50947;DHT22;36955;47.416;7.716;2022-11-20T04:56:51;4.00;99.90
50947;DHT22;36955;47.416;7.716;2022-11-20T04:59:17;4.00;99.90
50947;DHT22;36955;47.416;7.716;2022-11-20T05:01:43;4.00;99.90
50947;DHT22;36955;47.416;7.716;2022-11-20T05:04:09;3.90;99.90
50947;DHT22;36955;47.416;7.716;2022-11-20T05:06:35;3.90;99.90
50947;DHT22;36955;47.416;7.716;2022-11-20T05:09:01;3.90;99.90
50947;DHT22;36955;47.416;7.716;2022-11-20T05:11:27;4.00;99.90
50947;DHT22;36955;47.416;7.716;2022-11-20T05:13:53;3.90;99.90
50947;DHT22;36955;47.416;7.716;2022-11-20T05:16:21;3.90;99.90
50947;DHT22;36955;47.416;7.716;2022-11-20T05:18:48;3.90;99.90
50947;DHT22;36955;47.416;7.716;2022-11-20T05:21:15;3.90;99.90
50947;DHT22;36955;47.416;7.716;2022-11-20T05:23:41;3.90;99.90
50947;DHT22;36955;47.416;7.716;2022-11-20T05:26:15;3.90;99.90
50947;DHT22;36955;47.416;7.716;2022-11-20T05:28:41;3.90;99.90
50947;DHT22;36955;47.416;7.716;2022-11-20T05:31:10;3.80;99.90
50947;DHT22;36955;47.416;7.716;2022-11-20T05:33:39;3.90;99.90
50947;DHT22;36955;47.416;7.716;2022-11-20T05:36:05;3.90;99.90
50947;DHT22;36955;47.416;7.716;2022-11-20T05:38:32;4.00;99.90
50947;DHT22;36955;47.416;7.716;2022-11-20T05:41:09;4.00;99.90
50947;DHT22;36955;47.416;7.716;2022-11-20T05:43:37;4.00;99.90
50947;DHT22;36955;47.416;7.716;2022-11-20T05:46:04;4.10;99.90
50947;DHT22;36955;47.416;7.716;2022-11-20T05:48:31;4.10;99.90
50947;DHT22;36955;47.416;7.716;2022-11-20T05:50:58;4.10;99.90
50947;DHT22;36955;47.416;7.716;2022-11-20T05:53:25;4.20;99.90
50947;DHT22;36955;47.416;7.716;2022-11-20T05:56:02;4.10;99.90
50947;DHT22;36955;47.416;7.716;2022-11-20T05:58:28;4.10;99.90
50947;DHT22;36955;47.416;7.716;2022-11-20T06:01:02;4.20;99.90
50947;DHT22;36955;47.416;7.716;2022-11-20T06:03:28;4.20;99.90
50947;DHT22;36955;47.416;7.716;2022-11-20T06:05:54;4.20;99.90
50947;DHT22;36955;47.416;7.716;2022-11-20T06:08:20;4.20;99.90
50947;DHT22;36955;47.416;7.716;2022-11-20T06:10:46;4.20;99.90
50947;DHT22;36955;47.416;7.716;2022-11-20T06:13:12;4.20;99.90
50947;DHT22;36955;47.416;7.716;2022-11-20T06:15:38;4.20;99.90
50947;DHT22;36955;47.416;7.716;2022-11-20T06:18:04;4.30;99.90
50947;DHT22;36955;47.416;7.716;2022-11-20T06:20:30;4.20;99.90
50947;DHT22;36955;47.416;7.716;2022-11-20T06:22:56;4.20;99.90
50947;DHT22;36955;47.416;7.716;2022-11-20T06:25:22;4.20;99.90
50947;DHT22;36955;47.416;7.716;2022-11-20T06:27:48;4.20;99.90
50947;DHT22;36955;47.416;7.716;2022-11-20T06:30:14;4.20;99.90
50947;DHT22;36955;47.416;7.716;2022-11-20T06:32:40;4.10;99.90
50947;DHT22;36955;47.416;7.716;2022-11-20T06:35:07;4.20;99.90
50947;DHT22;36955;47.416;7.716;2022-11-20T06:37:33;4.20;99.90
50947;DHT22;36955;47.416;7.716;2022-11-20T06:39:59;4.10;99.90
50947;DHT22;36955;47.416;7.716;2022-11-20T06:42:25;4.30;99.90
50947;DHT22;36955;47.416;7.716;2022-11-20T06:44:51;4.20;99.90
50947;DHT22;36955;47.416;7.716;2022-11-20T06:47:17;4.20;99.90
50947;DHT22;36955;47.416;7.716;2022-11-20T06:49:43;4.20;99.90
50947;DHT22;36955;47.416;7.716;2022-11-20T06:52:09;4.20;99.90
50947;DHT22;36955;47.416;7.716;2022-11-20T06:54:35;4.20;99.90
50947;DHT22;36955;47.416;7.716;2022-11-20T06:57:01;4.20;99.90
50947;DHT22;36955;47.416;7.716;2022-11-20T06:59:27;4.20;99.90
50947;DHT22;36955;47.416;7.716;2022-11-20T07:01:53;4.20;99.90
50947;DHT22;36955;47.416;7.716;2022-11-20T07:04:19;4.20;99.90
50947;DHT22;36955;47.416;7.716;2022-11-20T07:06:45;4.20;99.90
50947;DHT22;36955;47.416;7.716;2022-11-20T07:09:11;4.10;99.90
50947;DHT22;36955;47.416;7.716;2022-11-20T07:11:37;4.10;99.90
50947;DHT22;36955;47.416;7.716;2022-11-20T07:14:03;4.10;99.90
50947;DHT22;36955;47.416;7.716;2022-11-20T07:16:29;4.10;99.90
50947;DHT22;36955;47.416;7.716;2022-11-20T07:18:55;4.10;99.90
50947;DHT22;36955;47.416;7.716;2022-11-20T07:21:21;4.10;99.90
50947;DHT22;36955;47.416;7.716;2022-11-20T07:23:47;4.00;99.90
50947;DHT22;36955;47.416;7.716;2022-11-20T07:26:13;4.00;99.90
50947;DHT22;36955;47.416;7.716;2022-11-20T07:28:39;4.00;99.90
50947;DHT22;36955;47.416;7.716;2022-11-20T07:31:06;4.00;99.90
50947;DHT22;36955;47.416;7.716;2022-11-20T07:33:32;4.00;99.90
50947;DHT22;36955;47.416;7.716;2022-11-20T07:35:59;4.00;99.90
50947;DHT22;36955;47.416;7.716;2022-11-20T07:38:25;4.00;99.90
50947;DHT22;36955;47.416;7.716;2022-11-20T07:40:55;4.10;99.90
50947;DHT22;36955;47.416;7.716;2022-11-20T07:43:21;4.10;99.90
50947;DHT22;36955;47.416;7.716;2022-11-20T07:45:47;4.10;99.90
50947;DHT22;36955;47.416;7.716;2022-11-20T07:48:13;4.20;99.90
50947;DHT22;36955;47.416;7.716;2022-11-20T07:50:39;4.30;99.90
50947;DHT22;36955;47.416;7.716;2022-11-20T07:53:05;4.20;99.90
50947;DHT22;36955;47.416;7.716;2022-11-20T07:55:32;4.30;99.90
50947;DHT22;36955;47.416;7.716;2022-11-20T07:57:58;4.40;99.90
50947;DHT22;36955;47.416;7.716;2022-11-20T08:00:25;4.40;99.90
50947;DHT22;36955;47.416;7.716;2022-11-20T08:02:52;4.40;99.90
50947;DHT22;36955;47.416;7.716;2022-11-20T08:05:18;4.50;99.90
50947;DHT22;36955;47.416;7.716;2022-11-20T08:07:44;4.50;99.90
50947;DHT22;36955;47.416;7.716;2022-11-20T08:10:13;4.60;99.90
50947;DHT22;36955;47.416;7.716;2022-11-20T08:12:46;4.70;99.90
50947;DHT22;36955;47.416;7.716;2022-11-20T08:15:13;4.70;99.90
50947;DHT22;36955;47.416;7.716;2022-11-20T08:17:39;4.80;99.90
50947;DHT22;36955;47.416;7.716;2022-11-20T08:20:05;4.80;99.90
50947;DHT22;36955;47.416;7.716;2022-11-20T08:22:31;4.90;99.90
50947;DHT22;36955;47.416;7.716;2022-11-20T08:24:57;4.90;99.90
50947;DHT22;36955;47.416;7.716;2022-11-20T08:27:23;4.90;99.90
50947;DHT22;36955;47.416;7.716;2022-11-20T08:29:49;5.00;99.90
50947;DHT22;36955;47.416;7.716;2022-11-20T08:32:15;5.10;99.90
50947;DHT22;36955;47.416;7.716;2022-11-20T08:34:41;5.10;99.90
50947;DHT22;36955;47.416;7.716;2022-11-20T08:37:07;5.20;99.90
50947;DHT22;36955;47.416;7.716;2022-11-20T08:39:33;5.30;99.90
50947;DHT22;36955;47.416;7.716;2022-11-20T08:41:59;5.30;99.90
50947;DHT22;36955;47.416;7.716;2022-11-20T08:44:25;5.40;99.90
50947;DHT22;36955;47.416;7.716;2022-11-20T08:46:51;5.50;99.90
50947;DHT22;36955;47.416;7.716;2022-11-20T08:49:17;5.60;99.90
50947;DHT22;36955;47.416;7.716;2022-11-20T08:51:43;5.70;99.90
50947;DHT22;36955;47.416;7.716;2022-11-20T08:54:09;5.80;99.90
50947;DHT22;36955;47.416;7.716;2022-11-20T08:56:36;5.80;99.90
50947;DHT22;36955;47.416;7.716;2022-11-20T08:59:02;5.80;99.90
50947;DHT22;36955;47.416;7.716;2022-11-20T09:01:28;5.90;99.90
50947;DHT22;36955;47.416;7.716;2022-11-20T09:03:57;6.00;99.90
50947;DHT22;36955;47.416;7.716;2022-11-20T09:06:24;6.10;99.90
50947;DHT22;36955;47.416;7.716;2022-11-20T09:08:53;6.10;99.90
50947;DHT22;36955;47.416;7.716;2022-11-20T09:11:20;6.10;99.90
50947;DHT22;36955;47.416;7.716;2022-11-20T09:13:46;6.10;99.90
50947;DHT22;36955;47.416;7.716;2022-11-20T09:16:12;6.20;99.90
50947;DHT22;36955;47.416;7.716;2022-11-20T09:18:38;6.30;99.90
50947;DHT22;36955;47.416;7.716;2022-11-20T09:21:12;6.30;99.90
50947;DHT22;36955;47.416;7.716;2022-11-20T09:23:38;6.40;99.90
50947;DHT22;36955;47.416;7.716;2022-11-20T09:26:06;6.40;99.90
50947;DHT22;36955;47.416;7.716;2022-11-20T09:28:32;6.40;99.90
50947;DHT22;36955;47.416;7.716;2022-11-20T09:30:59;6.40;99.90
50947;DHT22;36955;47.416;7.716;2022-11-20T09:33:25;6.30;99.90
50947;DHT22;36955;47.416;7.716;2022-11-20T09:35:51;6.30;99.90
50947;DHT22;36955;47.416;7.716;2022-11-20T09:38:17;6.30;99.90
50947;DHT22;36955;47.416;7.716;2022-11-20T09:41:03;6.30;99.90
50947;DHT22;36955;47.416;7.716;2022-11-20T09:46:44;6.30;99.90
50947;DHT22;36955;47.416;7.716;2022-11-20T09:49:36;6.30;99.90
50947;DHT22;36955;47.416;7.716;2022-11-20T09:52:52;6.30;99.90
50947;DHT22;36955;47.416;7.716;2022-11-20T09:55:22;6.40;99.90
50947;DHT22;36955;47.416;7.716;2022-11-20T09:57:50;6.40;99.90
50947;DHT22;36955;47.416;7.716;2022-11-20T10:00:17;6.60;99.90
50947;DHT22;36955;47.416;7.716;2022-11-20T10:02:53;6.60;99.90
50947;DHT22;36955;47.416;7.716;2022-11-20T10:05:23;6.80;99.90
50947;DHT22;36955;47.416;7.716;2022-11-20T10:08:05;6.80;99.90
50947;DHT22;36955;47.416;7.716;2022-11-20T10:11:24;6.90;99.90
50947;DHT22;36955;47.416;7.716;2022-11-20T10:19:09;6.80;99.90
50947;DHT22;36955;47.416;7.716;2022-11-20T10:29:37;7.10;99.90
50947;DHT22;36955;47.416;7.716;2022-11-20T10:32:09;7.20;99.90
50947;DHT22;36955;47.416;7.716;2022-11-20T10:37:32;7.40;99.90
50947;DHT22;36955;47.416;7.716;2022-11-20T10:58:48;7.60;99.90
50947;DHT22;36955;47.416;7.716;2022-11-20T11:01:19;7.60;99.90
50947;DHT22;36955;47.416;7.716;2022-11-20T11:03:45;7.60;99.90
50947;DHT22;36955;47.416;7.716;2022-11-20T11:06:19;7.60;99.90
50947;DHT22;36955;47.416;7.716;2022-11-20T11:08:47;7.60;99.90
50947;DHT22;36955;47.416;7.716;2022-11-20T11:11:21;7.60;99.90
50947;DHT22;36955;47.416;7.716;2022-11-20T11:13:49;7.60;99.90
50947;DHT22;36955;47.416;7.716;2022-11-20T11:16:25;7.60;99.90
50947;DHT22;36955;47.416;7.716;2022-11-20T11:18:52;7.60;99.90
50947;DHT22;36955;47.416;7.716;2022-11-20T11:21:28;7.60;99.90
50947;DHT22;36955;47.416;7.716;2022-11-20T11:24:03;7.50;99.90
50947;DHT22;36955;47.416;7.716;2022-11-20T11:26:30;7.50;99.90
50947;DHT22;36955;47.416;7.716;2022-11-20T11:29:01;7.50;99.90
50947;DHT22;36955;47.416;7.716;2022-11-20T11:31:30;7.50;99.90
50947;DHT22;36955;47.416;7.716;2022-11-20T11:34:15;7.50;99.90
50947;DHT22;36955;47.416;7.716;2022-11-20T11:36:42;7.50;99.90
50947;DHT22;36955;47.416;7.716;2022-11-20T11:39:17;7.50;99.90
50947;DHT22;36955;47.416;7.716;2022-11-20T11:41:44;7.50;99.90
50947;DHT22;36955;47.416;7.716;2022-11-20T11:44:24;7.50;99.90
50947;DHT22;36955;47.416;7.716;2022-11-20T11:46:55;7.60;99.90
50947;DHT22;36955;47.416;7.716;2022-11-20T11:49:21;7.60;99.90
50947;DHT22;36955;47.416;7.716;2022-11-20T11:52:18;7.60;99.90
50947;DHT22;36955;47.416;7.716;2022-11-20T11:54:53;7.70;99.90
50947;DHT22;36955;47.416;7.716;2022-11-20T11:59:54;7.70;99.90
50947;DHT22;36955;47.416;7.716;2022-11-20T12:02:37;7.70;99.90
50947;DHT22;36955;47.416;7.716;2022-11-20T12:08:06;7.90;99.90
50947;DHT22;36955;47.416;7.716;2022-11-20T12:13:39;7.90;99.90
50947;DHT22;36955;47.416;7.716;2022-11-20T12:16:11;7.90;99.90
50947;DHT22;36955;47.416;7.716;2022-11-20T12:18:38;7.80;99.90
50947;DHT22;36955;47.416;7.716;2022-11-20T12:35:07;8.00;99.90
50947;DHT22;36955;47.416;7.716;2022-11-20T12:42:53;7.80;99.90
50947;DHT22;36955;47.416;7.716;2022-11-20T12:51:07;7.90;99.90
50947;DHT22;36955;47.416;7.716;2022-11-20T13:00:00;8.10;99.90
50947;DHT22;36955;47.416;7.716;2022-11-20T13:05:59;8.10;99.90
50947;DHT22;36955;47.416;7.716;2022-11-20T13:08:35;8.20;99.90
50947;DHT22;36955;47.416;7.716;2022-11-20T13:19:18;8.30;99.90
50947;DHT22;36955;47.416;7.716;2022-11-20T13:21:46;8.30;99.90
50947;DHT22;36955;47.416;7.716;2022-11-20T13:26:45;8.30;99.90
50947;DHT22;36955;47.416;7.716;2022-11-20T13:29:17;8.30;99.90
50947;DHT22;36955;47.416;7.716;2022-11-20T13:31:45;8.30;99.90
50947;DHT22;36955;47.416;7.716;2022-11-20T13:34:22;8.30;99.90
50947;DHT22;36955;47.416;7.716;2022-11-20T13:36:51;8.20;99.90
50947;DHT22;36955;47.416;7.716;2022-11-20T13:39:29;8.20;99.90
50947;DHT22;36955;47.416;7.716;2022-11-20T13:44:44;8.20;99.90
50947;DHT22;36955;47.416;7.716;2022-11-20T13:49:48;8.10;99.90
50947;DHT22;36955;47.416;7.716;2022-11-20T13:52:49;8.10;99.90
50947;DHT22;36955;47.416;7.716;2022-11-20T14:03:45;8.00;99.90
50947;DHT22;36955;47.416;7.716;2022-11-20T14:08:50;7.90;99.90
50947;DHT22;36955;47.416;7.716;2022-11-20T14:11:19;8.00;99.90
50947;DHT22;36955;47.416;7.716;2022-11-20T14:16:27;7.90;99.90
50947;DHT22;36955;47.416;7.716;2022-11-20T14:18:54;7.90;99.90
50947;DHT22;36955;47.416;7.716;2022-11-20T14:21:26;7.90;99.90
50947;DHT22;36955;47.416;7.716;2022-11-20T14:23:53;7.80;99.90
50947;DHT22;36955;47.416;7.716;2022-11-20T14:26:20;7.70;99.90
50947;DHT22;36955;47.416;7.716;2022-11-20T14:28:49;7.70;99.90
50947;DHT22;36955;47.416;7.716;2022-11-20T14:31:26;7.60;99.90
50947;DHT22;36955;47.416;7.716;2022-11-20T14:33:54;7.60;99.90
50947;DHT22;36955;47.416;7.716;2022-11-20T14:36:22;7.60;99.90
50947;DHT22;36955;47.416;7.716;2022-11-20T14:38:51;7.60;99.90
50947;DHT22;36955;47.416;7.716;2022-11-20T14:41:22;7.60;99.90
50947;DHT22;36955;47.416;7.716;2022-11-20T14:43:57;7.60;99.90
50947;DHT22;36955;47.416;7.716;2022-11-20T14:46:24;7.60;99.90
50947;DHT22;36955;47.416;7.716;2022-11-20T14:48:55;7.70;99.90
50947;DHT22;36955;47.416;7.716;2022-11-20T14:53:53;7.70;99.90
50947;DHT22;36955;47.416;7.716;2022-11-20T14:56:23;7.70;99.90
50947;DHT22;36955;47.416;7.716;2022-11-20T14:58:59;7.70;99.90
50947;DHT22;36955;47.416;7.716;2022-11-20T15:01:27;7.70;99.90
50947;DHT22;36955;47.416;7.716;2022-11-20T15:04:10;7.60;99.90
50947;DHT22;36955;47.416;7.716;2022-11-20T15:06:51;7.60;99.90
50947;DHT22;36955;47.416;7.716;2022-11-20T15:09:17;7.60;99.90
50947;DHT22;36955;47.416;7.716;2022-11-20T15:11:57;7.60;99.90
50947;DHT22;36955;47.416;7.716;2022-11-20T15:14:24;7.50;99.90
50947;DHT22;36955;47.416;7.716;2022-11-20T15:16:52;7.50;99.90
50947;DHT22;36955;47.416;7.716;2022-11-20T15:19:25;7.50;99.90
50947;DHT22;36955;47.416;7.716;2022-11-20T15:21:52;7.50;99.90
50947;DHT22;36955;47.416;7.716;2022-11-20T15:24:19;7.50;99.90
50947;DHT22;36955;47.416;7.716;2022-11-20T15:26:45;7.50;99.90
50947;DHT22;36955;47.416;7.716;2022-11-20T15:29:15;7.40;99.90
50947;DHT22;36955;47.416;7.716;2022-11-20T15:31:41;7.30;99.90
50947;DHT22;36955;47.416;7.716;2022-11-20T15:34:15;7.20;99.90
50947;DHT22;36955;47.416;7.716;2022-11-20T15:36:42;7.10;99.90
50947;DHT22;36955;47.416;7.716;2022-11-20T15:39:08;7.00;99.90
50947;DHT22;36955;47.416;7.716;2022-11-20T15:41:35;7.00;99.90
50947;DHT22;36955;47.416;7.716;2022-11-20T15:44:03;7.00;99.90
50947;DHT22;36955;47.416;7.716;2022-11-20T15:46:31;6.90;99.90
50947;DHT22;36955;47.416;7.716;2022-11-20T15:48:59;6.80;99.90
50947;DHT22;36955;47.416;7.716;2022-11-20T15:51:35;6.60;99.90
50947;DHT22;36955;47.416;7.716;2022-11-20T15:54:11;6.50;99.90
50947;DHT22;36955;47.416;7.716;2022-11-20T15:56:37;6.40;99.90
50947;DHT22;36955;47.416;7.716;2022-11-20T15:59:03;6.30;99.90
50947;DHT22;36955;47.416;7.716;2022-11-20T16:01:29;6.40;99.90
50947;DHT22;36955;47.416;7.716;2022-11-20T16:03:55;6.50;99.90
50947;DHT22;36955;47.416;7.716;2022-11-20T16:06:21;6.60;99.90
50947;DHT22;36955;47.416;7.716;2022-11-20T16:08:47;6.60;99.90
50947;DHT22;36955;47.416;7.716;2022-11-20T16:11:15;6.60;99.90
50947;DHT22;36955;47.416;7.716;2022-11-20T16:13:42;6.60;99.90
50947;DHT22;36955;47.416;7.716;2022-11-20T16:16:23;6.60;99.90
50947;DHT22;36955;47.416;7.716;2022-11-20T16:18:50;6.50;99.90
50947;DHT22;36955;47.416;7.716;2022-11-20T16:21:16;6.40;99.90
50947;DHT22;36955;47.416;7.716;2022-11-20T16:23:42;6.30;99.90
50947;DHT22;36955;47.416;7.716;2022-11-20T16:26:10;6.30;99.90
50947;DHT22;36955;47.416;7.716;2022-11-20T16:28:36;6.30;99.90
50947;DHT22;36955;47.416;7.716;2022-11-20T16:31:29;6.20;99.90
50947;DHT22;36955;47.416;7.716;2022-11-20T16:33:56;6.20;99.90
50947;DHT22;36955;47.416;7.716;2022-11-20T16:36:25;6.20;99.90
50947;DHT22;36955;47.416;7.716;2022-11-20T16:38:56;6.30;99.90
50947;DHT22;36955;47.416;7.716;2022-11-20T16:41:23;6.40;99.90
50947;DHT22;36955;47.416;7.716;2022-11-20T16:43:54;6.30;99.90
50947;DHT22;36955;47.416;7.716;2022-11-20T16:46:21;6.40;99.90
50947;DHT22;36955;47.416;7.716;2022-11-20T16:51:23;6.50;99.90
50947;DHT22;36955;47.416;7.716;2022-11-20T16:53:49;6.60;99.90
50947;DHT22;36955;47.416;7.716;2022-11-20T16:56:18;6.60;99.90
50947;DHT22;36955;47.416;7.716;2022-11-20T16:58:45;6.60;99.90
50947;DHT22;36955;47.416;7.716;2022-11-20T17:01:14;6.60;99.90
50947;DHT22;36955;47.416;7.716;2022-11-20T17:03:42;6.50;99.90
50947;DHT22;36955;47.416;7.716;2022-11-20T17:06:16;6.60;99.90
50947;DHT22;36955;47.416;7.716;2022-11-20T17:08:43;6.60;99.90
50947;DHT22;36955;47.416;7.716;2022-11-20T17:11:11;6.70;99.90
50947;DHT22;36955;47.416;7.716;2022-11-20T17:13:38;6.60;99.90
50947;DHT22;36955;47.416;7.716;2022-11-20T17:16:12;6.60;99.90
50947;DHT22;36955;47.416;7.716;2022-11-20T17:18:39;6.50;99.90
50947;DHT22;36955;47.416;7.716;2022-11-20T17:21:05;6.50;99.90
50947;DHT22;36955;47.416;7.716;2022-11-20T17:23:32;6.30;99.90
50947;DHT22;36955;47.416;7.716;2022-11-20T17:26:19;6.30;99.90
50947;DHT22;36955;47.416;7.716;2022-11-20T17:28:51;6.20;99.90
50947;DHT22;36955;47.416;7.716;2022-11-20T17:31:18;6.10;99.90
50947;DHT22;36955;47.416;7.716;2022-11-20T17:33:45;6.00;99.90
50947;DHT22;36955;47.416;7.716;2022-11-20T17:36:16;5.90;99.90
50947;DHT22;36955;47.416;7.716;2022-11-20T17:38:42;5.80;99.90
50947;DHT22;36955;47.416;7.716;2022-11-20T17:41:11;5.80;99.90
50947;DHT22;36955;47.416;7.716;2022-11-20T17:43:38;5.80;99.90
50947;DHT22;36955;47.416;7.716;2022-11-20T17:46:28;5.80;99.90
50947;DHT22;36955;47.416;7.716;2022-11-20T17:48:55;5.90;99.90
50947;DHT22;36955;47.416;7.716;2022-11-20T17:51:24;5.90;99.90
50947;DHT22;36955;47.416;7.716;2022-11-20T17:53:53;5.80;99.90
50947;DHT22;36955;47.416;7.716;2022-11-20T17:56:19;5.80;99.90
50947;DHT22;36955;47.416;7.716;2022-11-20T17:58:45;5.90;99.90